Time;durP1;ratioP1;P1;durP2;ratioP2;P2;SDS_P1;SDS_P2;PMS_P1;PMS_P2;Temp;Humidity;BMP_temperature;BMP_pressure;BME280_temperature;BME280_humidity;BME280_pressure;Samples;Min_cycle;Max_cycle;Signal;HPM_P1;HPM_P2
2022/03/08 00:02:25;;;;;;;16.17;7.40;;;0.10;99.90;;;;;;4940926;29;20227;-71
2022/03/08 00:04:53;;;;;;;13.85;7.07;;;0.10;99.90;;;;;;4940961;29;20301;-71
2022/03/08 00:07:21;;;;;;;9.23;6.68;;;0.10;99.90;;;;;;4941361;29;20212;-71
2022/03/08 00:09:49;;;;;;;10.43;6.97;;;0.00;99.90;;;;;;4940832;28;20229;-70
2022/03/08 00:12:16;;;;;;;7.57;6.30;;;0.00;99.90;;;;;;4940388;29;20212;-70
2022/03/08 00:14:44;;;;;;;11.18;7.57;;;0.00;99.90;;;;;;4940454;29;20209;-70
2022/03/08 00:17:15;;;;;;;11.93;7.68;;;0.00;99.90;;;;;;4940520;29;20424;-71
2022/03/08 00:19:43;;;;;;;11.95;8.05;;;0.00;99.90;;;;;;4940573;28;20229;-71
2022/03/08 00:22:11;;;;;;;11.13;8.20;;;-0.10;99.90;;;;;;4942481;28;20211;-70
2022/03/08 00:24:39;;;;;;;13.00;8.05;;;-0.10;99.90;;;;;;4945214;29;20216;-70
2022/03/08 00:27:07;;;;;;;12.35;7.80;;;0.00;99.90;;;;;;4944425;29;20201;-70
2022/03/08 00:29:35;;;;;;;9.30;6.75;;;0.00;99.90;;;;;;4944076;28;20231;-71
2022/03/08 00:32:03;;;;;;;11.07;7.43;;;-0.10;99.90;;;;;;4944245;29;20569;-70
2022/03/08 00:34:32;;;;;;;12.45;7.78;;;-0.10;99.90;;;;;;4943731;29;20582;-71
2022/03/08 00:37:00;;;;;;;12.88;7.40;;;-0.10;99.90;;;;;;4948608;28;20700;-69
2022/03/08 00:39:28;;;;;;;12.43;6.95;;;-0.10;99.90;;;;;;4962542;28;20232;-70
2022/03/08 00:41:55;;;;;;;10.73;6.95;;;-0.20;99.90;;;;;;4962408;28;20547;-70
2022/03/08 00:44:23;;;;;;;9.38;7.40;;;-0.20;99.90;;;;;;4962106;28;20306;-69
2022/03/08 00:46:51;;;;;;;12.57;7.97;;;-0.20;99.90;;;;;;4961868;28;20231;-67
2022/03/08 00:49:19;;;;;;;12.50;7.93;;;-0.20;99.90;;;;;;4962363;28;20727;-69
2022/03/08 00:51:48;;;;;;;16.65;7.72;;;-0.20;99.90;;;;;;4962073;28;20627;-69
2022/03/08 00:54:16;;;;;;;8.70;6.90;;;-0.20;99.90;;;;;;4962450;28;20208;-69
2022/03/08 00:56:44;;;;;;;10.85;8.00;;;-0.20;99.90;;;;;;4962535;28;20208;-69
2022/03/08 00:59:12;;;;;;;11.32;7.65;;;-0.30;99.90;;;;;;4962202;28;20274;-69
2022/03/08 01:01:40;;;;;;;14.13;8.43;;;-0.30;99.90;;;;;;4962669;28;20247;-68
2022/03/08 01:04:08;;;;;;;11.25;7.45;;;-0.30;99.90;;;;;;4962458;28;20433;-69
2022/03/08 01:06:36;;;;;;;13.05;8.65;;;-0.30;99.90;;;;;;4961735;28;20581;-69
2022/03/08 01:09:06;;;;;;;13.13;8.52;;;-0.30;99.90;;;;;;4961938;28;20225;-69
2022/03/08 01:11:36;;;;;;;10.48;8.52;;;-0.30;99.90;;;;;;4961857;28;20204;-69
2022/03/08 01:14:04;;;;;;;9.45;7.03;;;-0.30;99.90;;;;;;4961977;28;20311;-69
2022/03/08 01:16:32;;;;;;;12.93;8.80;;;-0.30;99.90;;;;;;4961692;28;20219;-68
2022/03/08 01:18:59;;;;;;;10.95;6.88;;;-0.30;99.90;;;;;;4961687;28;20385;-69
2022/03/08 01:21:27;;;;;;;12.25;8.95;;;-0.30;99.90;;;;;;4961515;28;20629;-69
2022/03/08 01:23:55;;;;;;;12.25;7.82;;;-0.30;99.90;;;;;;4960819;28;20209;-69
2022/03/08 01:26:24;;;;;;;16.33;9.30;;;-0.30;99.90;;;;;;4941922;29;20209;-69
2022/03/08 01:28:52;;;;;;;10.85;8.95;;;-0.40;99.90;;;;;;4941882;28;20623;-69
2022/03/08 01:31:20;;;;;;;17.55;8.55;;;-0.40;99.90;;;;;;4941822;29;20585;-68
2022/03/08 01:33:49;;;;;;;10.65;8.65;;;-0.40;99.90;;;;;;4941029;28;20201;-69
2022/03/08 01:36:17;;;;;;;12.38;7.75;;;-0.40;99.90;;;;;;4941593;29;20244;-68
2022/03/08 01:38:45;;;;;;;15.25;7.82;;;-0.50;99.90;;;;;;4942547;28;20245;-68
2022/03/08 01:41:13;;;;;;;11.38;8.93;;;-0.50;99.90;;;;;;4943731;29;20201;-68
2022/03/08 01:43:42;;;;;;;13.55;8.27;;;-0.50;99.90;;;;;;4944699;29;20641;-68
2022/03/08 01:46:10;;;;;;;9.60;7.63;;;-0.50;99.90;;;;;;4944899;29;20304;-68
2022/03/08 01:48:38;;;;;;;14.02;8.05;;;-0.60;99.90;;;;;;4944973;29;20518;-68
2022/03/08 01:51:09;;;;;;;10.93;8.35;;;-0.60;99.90;;;;;;4945227;29;20669;-69
2022/03/08 01:53:39;;;;;;;13.35;9.43;;;-0.60;99.90;;;;;;4945450;29;20256;-69
2022/03/08 01:56:08;;;;;;;10.70;8.50;;;-0.60;99.90;;;;;;4945959;29;20749;-68
2022/03/08 01:58:36;;;;;;;13.90;8.85;;;-0.60;99.90;;;;;;4943578;29;20607;-69
2022/03/08 02:01:07;;;;;;;10.57;7.95;;;-0.60;99.90;;;;;;4944121;28;20240;-69
2022/03/08 02:03:35;;;;;;;15.07;8.82;;;-0.60;99.90;;;;;;4946100;29;20345;-69
2022/03/08 02:06:03;;;;;;;14.80;8.02;;;-0.60;99.90;;;;;;4945258;29;20626;-69
2022/03/08 02:08:31;;;;;;;17.75;8.75;;;-0.60;99.90;;;;;;4944583;29;20216;-69
2022/03/08 02:11:00;;;;;;;9.32;8.30;;;-0.70;99.90;;;;;;4955005;28;20228;-70
2022/03/08 02:13:28;;;;;;;13.00;8.48;;;-0.70;99.90;;;;;;4962212;28;20421;-66
2022/03/08 02:15:56;;;;;;;11.15;7.90;;;-0.70;99.90;;;;;;4962680;28;20481;-71
2022/03/08 02:18:26;;;;;;;11.27;9.18;;;-0.70;99.90;;;;;;4961278;28;20367;-71
2022/03/08 02:20:54;;;;;;;11.45;7.68;;;-0.70;99.90;;;;;;4961497;28;20481;-70
2022/03/08 02:23:23;;;;;;;11.90;7.70;;;-0.70;99.90;;;;;;4961269;28;20323;-71
2022/03/08 02:25:50;;;;;;;14.75;8.02;;;-0.70;99.90;;;;;;4961253;28;20664;-71
2022/03/08 02:28:19;;;;;;;10.00;8.45;;;-0.70;99.90;;;;;;4961714;28;20212;-71
2022/03/08 02:30:46;;;;;;;11.30;8.88;;;-0.70;99.90;;;;;;4961059;28;20457;-69
2022/03/08 02:33:14;;;;;;;9.75;7.72;;;-0.70;99.90;;;;;;4960845;28;20204;-71
2022/03/08 02:35:42;;;;;;;12.25;7.80;;;-0.70;99.90;;;;;;4960938;28;20790;-72
2022/03/08 02:38:10;;;;;;;12.18;9.15;;;-0.70;99.90;;;;;;4960828;28;20319;-70
2022/03/08 02:40:43;;;;;;;14.27;9.63;;;-0.80;99.90;;;;;;4960771;28;20407;-71
2022/03/08 02:43:12;;;;;;;12.50;9.00;;;-0.80;99.90;;;;;;4960985;28;20520;-72
2022/03/08 02:45:40;;;;;;;10.90;7.80;;;-0.80;99.90;;;;;;4960092;28;20688;-71
2022/03/08 02:48:09;;;;;;;12.07;8.63;;;-0.80;99.90;;;;;;4960844;28;20304;-71
2022/03/08 02:50:37;;;;;;;10.63;8.05;;;-0.80;99.90;;;;;;4960568;28;20762;-72
2022/03/08 02:53:05;;;;;;;9.35;7.68;;;-0.80;99.90;;;;;;4959985;28;20204;-72
2022/03/08 02:55:35;;;;;;;13.20;8.38;;;-0.90;99.90;;;;;;4961647;28;20306;-72
2022/03/08 02:58:05;;;;;;;9.70;8.10;;;-0.90;99.90;;;;;;4960511;28;20307;-71
2022/03/08 03:00:35;;;;;;;12.38;8.75;;;-0.90;99.90;;;;;;4960474;28;20255;-72
2022/03/08 03:03:04;;;;;;;11.00;9.43;;;-0.90;99.90;;;;;;4960214;28;20663;-70
2022/03/08 03:05:32;;;;;;;12.15;7.82;;;-0.90;99.90;;;;;;4960742;28;20201;-72
2022/03/08 03:08:01;;;;;;;14.75;9.10;;;-1.00;99.90;;;;;;4960594;28;20669;-72
2022/03/08 03:10:29;;;;;;;10.70;8.32;;;-1.00;99.90;;;;;;4960266;28;20927;-72
2022/03/08 03:12:57;;;;;;;14.90;9.73;;;-1.00;99.90;;;;;;4960409;28;20303;-70
2022/03/08 03:15:28;;;;;;;14.00;9.20;;;-1.00;99.90;;;;;;4960109;28;20212;-72
2022/03/08 03:17:56;;;;;;;13.80;8.05;;;-1.00;99.90;;;;;;4960048;28;20204;-72
2022/03/08 03:20:26;;;;;;;16.33;9.52;;;-1.10;99.90;;;;;;4960161;28;20232;-71
2022/03/08 03:22:54;;;;;;;17.63;8.35;;;-1.10;99.90;;;;;;4960077;28;20271;-72
2022/03/08 03:25:22;;;;;;;11.15;8.10;;;-1.10;99.90;;;;;;4959854;28;20595;-72
2022/03/08 03:27:50;;;;;;;10.15;7.35;;;-1.10;99.90;;;;;;4960047;28;20303;-72
2022/03/08 03:30:19;;;;;;;12.38;8.10;;;-1.10;99.90;;;;;;4960252;28;20723;-73
2022/03/08 03:32:48;;;;;;;12.57;7.88;;;-1.10;99.90;;;;;;4959916;28;20219;-72
2022/03/08 03:35:16;;;;;;;10.38;8.13;;;-1.20;99.90;;;;;;4959915;28;20599;-71
2022/03/08 03:37:44;;;;;;;11.55;8.45;;;-1.20;99.90;;;;;;4959852;28;20204;-71
2022/03/08 03:40:13;;;;;;;12.93;9.15;;;-1.10;99.90;;;;;;4959998;28;20228;-71
2022/03/08 03:42:42;;;;;;;10.63;8.02;;;-1.10;99.90;;;;;;4959733;28;20299;-71
2022/03/08 03:45:11;;;;;;;10.85;7.90;;;-1.10;99.90;;;;;;4959596;28;20299;-72
2022/03/08 03:47:39;;;;;;;14.27;7.72;;;-1.10;99.90;;;;;;4959503;28;20604;-72
2022/03/08 03:50:10;;;;;;;16.83;9.68;;;-1.10;99.90;;;;;;4959763;28;20259;-72
2022/03/08 03:52:38;;;;;;;10.45;8.77;;;-1.10;99.90;;;;;;4959933;28;20291;-71
2022/03/08 03:55:11;;;;;;;9.98;7.75;;;-1.20;99.90;;;;;;4959657;28;20208;-71
2022/03/08 03:57:39;;;;;;;13.27;8.15;;;-1.10;99.90;;;;;;4962199;28;20303;-70
2022/03/08 04:00:11;;;;;;;12.80;10.05;;;-1.10;99.90;;;;;;4963563;28;20370;-72
2022/03/08 04:02:39;;;;;;;12.65;8.88;;;-1.10;99.90;;;;;;4963596;28;20723;-72
2022/03/08 04:05:09;;;;;;;12.57;8.38;;;-1.10;99.90;;;;;;4963520;28;20232;-72
2022/03/08 04:07:37;;;;;;;13.07;9.18;;;-1.10;99.90;;;;;;4963650;28;20243;-72
2022/03/08 04:10:07;;;;;;;14.63;9.10;;;-1.10;99.90;;;;;;4963575;28;20632;-72
2022/03/08 04:12:35;;;;;;;11.45;8.52;;;-1.10;99.90;;;;;;4963357;28;20752;-72
2022/03/08 04:15:03;;;;;;;15.75;8.38;;;-1.10;99.90;;;;;;4962702;28;20561;-72
2022/03/08 04:17:31;;;;;;;12.10;9.98;;;-1.10;99.90;;;;;;4963428;28;20405;-72
2022/03/08 04:19:59;;;;;;;14.88;9.52;;;-1.10;99.90;;;;;;4963199;28;20228;-71
2022/03/08 04:22:28;;;;;;;11.15;8.93;;;-1.10;99.90;;;;;;4963332;28;20303;-71
2022/03/08 04:24:57;;;;;;;10.70;8.20;;;-1.10;99.90;;;;;;4963029;28;20204;-71
2022/03/08 04:27:25;;;;;;;12.15;8.75;;;-1.10;99.90;;;;;;4962920;28;20287;-71
2022/03/08 04:29:53;;;;;;;10.73;8.32;;;-1.10;99.90;;;;;;4963048;28;20472;-71
2022/03/08 04:32:21;;;;;;;15.65;9.30;;;-1.10;99.90;;;;;;4963194;28;20343;-71
2022/03/08 04:34:49;;;;;;;12.13;8.75;;;-1.10;99.90;;;;;;4962984;28;20211;-71
2022/03/08 04:37:17;;;;;;;12.68;8.75;;;-1.10;99.90;;;;;;4963035;28;20541;-71
2022/03/08 04:39:46;;;;;;;9.82;8.75;;;-1.10;99.90;;;;;;4962881;28;20264;-71
2022/03/08 04:42:14;;;;;;;13.48;9.68;;;-1.10;99.90;;;;;;4963050;28;20212;-71
2022/03/08 04:44:42;;;;;;;14.52;8.88;;;-1.20;99.90;;;;;;4962500;28;20204;-72
2022/03/08 04:47:10;;;;;;;9.45;8.02;;;-1.20;99.90;;;;;;4962277;28;20481;-72
2022/03/08 04:49:38;;;;;;;9.32;8.23;;;-1.20;99.90;;;;;;4962610;28;20315;-71
2022/03/08 04:52:07;;;;;;;12.32;8.57;;;-1.20;99.90;;;;;;4962234;28;20243;-72
2022/03/08 04:54:35;;;;;;;11.85;8.02;;;-1.20;99.90;;;;;;4962420;28;20584;-71
2022/03/08 04:57:05;;;;;;;8.00;7.20;;;-1.20;99.90;;;;;;4962621;28;20462;-72
2022/03/08 04:59:32;;;;;;;10.75;7.85;;;-1.20;99.90;;;;;;4962940;28;20323;-72
2022/03/08 05:02:00;;;;;;;10.95;7.63;;;-1.20;99.90;;;;;;4963594;28;20427;-71
2022/03/08 05:04:29;;;;;;;13.13;8.73;;;-1.20;99.90;;;;;;4962797;28;20208;-70
2022/03/08 05:06:56;;;;;;;13.35;9.02;;;-1.20;99.90;;;;;;4962892;28;20212;-71
2022/03/08 05:09:24;;;;;;;10.52;7.82;;;-1.20;99.90;;;;;;4963434;28;20841;-72
2022/03/08 05:11:52;;;;;;;11.48;8.07;;;-1.20;99.90;;;;;;4962957;28;20224;-71
2022/03/08 05:14:21;;;;;;;9.43;7.60;;;-1.20;99.90;;;;;;4962374;28;20291;-72
2022/03/08 05:16:49;;;;;;;12.85;8.30;;;-1.20;99.90;;;;;;4962248;28;20204;-72
2022/03/08 05:19:17;;;;;;;12.60;8.50;;;-1.20;99.90;;;;;;4962716;28;20225;-72
2022/03/08 05:21:45;;;;;;;14.05;9.10;;;-1.20;99.90;;;;;;4961928;28;20311;-69
2022/03/08 05:24:13;;;;;;;12.27;8.85;;;-1.20;99.90;;;;;;4962630;28;20291;-68
2022/03/08 05:26:41;;;;;;;11.90;8.00;;;-1.30;99.90;;;;;;4961545;28;20848;-68
2022/03/08 05:29:10;;;;;;;13.60;8.80;;;-1.20;99.90;;;;;;4961579;28;20266;-69
2022/03/08 05:31:39;;;;;;;14.45;9.10;;;-1.30;99.90;;;;;;4960955;28;20210;-69
2022/03/08 05:34:07;;;;;;;13.30;9.15;;;-1.30;99.90;;;;;;4961190;28;20291;-69
2022/03/08 05:36:35;;;;;;;12.45;9.40;;;-1.30;99.90;;;;;;4961243;28;20661;-69
2022/03/08 05:39:03;;;;;;;15.40;10.77;;;-1.30;99.90;;;;;;4961537;28;20764;-69
2022/03/08 05:41:37;;;;;;;10.70;8.68;;;-1.30;99.90;;;;;;4961031;28;20315;-69
2022/03/08 05:44:19;;;;;;;11.93;8.57;;;-1.30;99.90;;;;;;4959709;28;20309;-69
2022/03/08 05:46:51;;;;;;;14.40;9.43;;;-1.30;99.90;;;;;;4961462;28;20203;-69
2022/03/08 05:49:19;;;;;;;14.82;9.85;;;-1.40;99.90;;;;;;4959983;28;20252;-69
2022/03/08 05:51:47;;;;;;;15.35;8.57;;;-1.40;99.90;;;;;;4961573;28;20291;-69
2022/03/08 05:54:16;;;;;;;9.88;8.73;;;-1.40;99.90;;;;;;4961708;28;20292;-71
2022/03/08 05:56:53;;;;;;;15.93;9.18;;;-1.40;99.90;;;;;;4960904;28;20723;-70
2022/03/08 05:59:24;;;;;;;13.77;9.88;;;-1.40;99.90;;;;;;4961206;28;20474;-69
2022/03/08 06:01:53;;;;;;;12.57;9.30;;;-1.40;99.90;;;;;;4961212;28;20226;-69
2022/03/08 06:04:24;;;;;;;13.25;9.70;;;-1.30;99.90;;;;;;4958550;28;20444;-69
2022/03/08 06:06:54;;;;;;;14.98;10.25;;;-1.30;99.90;;;;;;4954114;28;20209;-69
2022/03/08 06:09:22;;;;;;;12.75;9.35;;;-1.30;99.90;;;;;;4953950;28;20319;-69
2022/03/08 06:11:49;;;;;;;14.85;9.95;;;-1.30;99.90;;;;;;4952643;28;20474;-70
2022/03/08 06:14:19;;;;;;;15.10;9.48;;;-1.30;99.90;;;;;;4951521;28;20458;-67
2022/03/08 06:16:50;;;;;;;16.73;10.88;;;-1.30;99.90;;;;;;4959612;28;20683;-69
2022/03/08 06:19:19;;;;;;;14.10;9.63;;;-1.30;99.90;;;;;;4959026;28;20213;-69
2022/03/08 06:21:49;;;;;;;13.15;10.10;;;-1.30;99.90;;;;;;4960605;28;20660;-70
2022/03/08 06:24:20;;;;;;;16.58;10.13;;;-1.30;99.90;;;;;;4952238;28;20201;-69
2022/03/08 06:26:49;;;;;;;14.27;10.35;;;-1.20;99.90;;;;;;4948450;28;20200;-68
2022/03/08 06:29:18;;;;;;;13.23;10.07;;;-1.10;99.90;;;;;;4950638;28;20278;-69
2022/03/08 06:31:46;;;;;;;14.38;9.60;;;-1.10;99.90;;;;;;4950497;28;20280;-69
2022/03/08 06:34:18;;;;;;;11.98;9.95;;;-1.10;99.90;;;;;;4959513;28;20239;-68
2022/03/08 06:36:46;;;;;;;18.77;9.77;;;-1.00;99.90;;;;;;4959795;28;20201;-68
2022/03/08 06:39:14;;;;;;;15.98;9.98;;;-1.00;99.90;;;;;;4960355;28;20290;-68
2022/03/08 06:41:45;;;;;;;12.27;9.82;;;-0.90;99.90;;;;;;4958565;28;20217;-68
2022/03/08 06:44:13;;;;;;;17.92;10.45;;;-0.90;99.90;;;;;;4959539;28;20224;-67
2022/03/08 06:46:51;;;;;;;15.48;9.35;;;-0.80;99.90;;;;;;4959742;28;20197;-69
2022/03/08 06:49:25;;;;;;;14.20;9.50;;;-0.70;99.90;;;;;;4960201;28;20902;-68
2022/03/08 06:51:53;;;;;;;15.48;9.00;;;-0.70;99.90;;;;;;4959714;28;20788;-68
2022/03/08 06:54:21;;;;;;;14.40;10.40;;;-0.70;99.90;;;;;;4959547;28;20291;-68
2022/03/08 06:56:49;;;;;;;14.90;9.10;;;-0.60;99.90;;;;;;4959436;28;20216;-68
2022/03/08 06:59:17;;;;;;;14.18;10.07;;;-0.50;99.90;;;;;;4959701;28;20303;-67
2022/03/08 07:01:45;;;;;;;11.63;9.55;;;-0.50;99.90;;;;;;4960752;28;20375;-66
2022/03/08 07:04:16;;;;;;;12.77;9.05;;;-0.40;99.90;;;;;;4958527;28;20211;-66
2022/03/08 07:06:51;;;;;;;13.27;9.40;;;-0.40;99.90;;;;;;4959938;28;20227;-68
2022/03/08 07:09:22;;;;;;;10.95;8.27;;;-0.30;99.90;;;;;;4959105;28;20417;-68
2022/03/08 07:11:50;;;;;;;12.95;8.50;;;-0.20;99.90;;;;;;4959250;28;20336;-68
2022/03/08 07:14:18;;;;;;;11.10;8.35;;;-0.10;99.90;;;;;;4958881;28;20204;-67
2022/03/08 07:16:50;;;;;;;22.52;9.82;;;-0.10;99.90;;;;;;4959059;28;20211;-68
2022/03/08 07:19:21;;;;;;;15.02;8.35;;;0.00;99.90;;;;;;4958792;28;20307;-69
2022/03/08 07:21:50;;;;;;;12.20;8.10;;;0.10;99.90;;;;;;4961284;28;20252;-66
2022/03/08 07:24:18;;;;;;;14.50;8.55;;;0.20;99.90;;;;;;4959827;28;20232;-67
2022/03/08 07:26:49;;;;;;;13.25;8.35;;;0.30;99.90;;;;;;4959658;28;20201;-69
2022/03/08 07:29:16;;;;;;;14.82;6.70;;;0.40;99.90;;;;;;4958885;28;20415;-69
2022/03/08 07:31:44;;;;;;;10.57;7.45;;;0.50;99.90;;;;;;4957103;28;20228;-69
2022/03/08 07:34:14;;;;;;;11.45;6.82;;;0.50;99.90;;;;;;4958802;28;20192;-69
2022/03/08 07:36:42;;;;;;;8.73;7.18;;;0.60;99.90;;;;;;4960240;28;20365;-68
2022/03/08 07:39:12;;;;;;;7.75;6.82;;;0.70;99.90;;;;;;4959592;28;20231;-69
2022/03/08 07:41:40;;;;;;;10.85;7.05;;;0.80;99.90;;;;;;4959405;28;20221;-70
2022/03/08 07:44:08;;;;;;;8.52;6.35;;;0.80;99.90;;;;;;4958956;28;20212;-70
2022/03/08 07:46:36;;;;;;;10.30;7.53;;;0.90;99.90;;;;;;4959341;28;20207;-65
2022/03/08 07:49:07;;;;;;;10.30;6.75;;;1.00;99.90;;;;;;4958416;28;20567;-64
2022/03/08 07:51:48;;;;;;;9.95;7.47;;;1.10;99.90;;;;;;4960014;28;20723;-65
2022/03/08 07:54:21;;;;;;;9.18;6.25;;;1.10;99.90;;;;;;4959775;28;20196;-67
2022/03/08 07:56:50;;;;;;;7.20;6.45;;;1.30;99.90;;;;;;4960521;28;20211;-66
2022/03/08 07:59:21;;;;;;;9.93;6.63;;;1.40;99.90;;;;;;4960098;28;20213;-66
2022/03/08 08:01:49;;;;;;;9.70;7.15;;;1.60;99.90;;;;;;4958922;28;20442;-68
2022/03/08 08:04:17;;;;;;;7.68;6.88;;;1.60;99.90;;;;;;4959595;28;20208;-67
2022/03/08 08:06:45;;;;;;;7.28;5.88;;;1.80;99.90;;;;;;4959774;28;20488;-67
2022/03/08 08:09:13;;;;;;;9.98;6.55;;;1.90;99.90;;;;;;4959984;28;20223;-67
2022/03/08 08:11:42;;;;;;;9.40;5.75;;;2.00;99.90;;;;;;4959694;28;20240;-67
2022/03/08 08:14:10;;;;;;;7.68;6.35;;;2.10;99.90;;;;;;4959817;28;20223;-67
2022/03/08 08:16:38;;;;;;;5.78;5.18;;;2.30;99.90;;;;;;4959742;28;20228;-66
2022/03/08 08:19:06;;;;;;;8.38;5.55;;;2.40;99.90;;;;;;4959257;28;20271;-66
2022/03/08 08:21:34;;;;;;;7.70;5.88;;;2.50;99.90;;;;;;4959868;28;20205;-66
2022/03/08 08:24:03;;;;;;;5.90;4.85;;;2.60;99.90;;;;;;4959065;28;20800;-68
2022/03/08 08:26:31;;;;;;;5.85;4.55;;;2.70;99.90;;;;;;4959521;28;20206;-66
2022/03/08 08:29:01;;;;;;;5.05;4.55;;;2.80;99.90;;;;;;4959100;28;20242;-67
2022/03/08 08:31:31;;;;;;;9.50;4.40;;;2.90;99.90;;;;;;4959333;28;20631;-69
2022/03/08 08:33:59;;;;;;;4.07;3.67;;;3.00;99.90;;;;;;4958934;28;20236;-64
2022/03/08 08:36:27;;;;;;;4.53;4.10;;;3.20;99.90;;;;;;4958913;28;20230;-66
2022/03/08 08:38:55;;;;;;;6.72;4.60;;;3.30;99.90;;;;;;4958738;28;20311;-66
2022/03/08 08:41:22;;;;;;;4.88;3.92;;;3.30;99.90;;;;;;4958759;28;20497;-70
2022/03/08 08:43:50;;;;;;;5.13;3.63;;;3.40;99.90;;;;;;4954411;28;20264;-70
2022/03/08 08:46:19;;;;;;;5.88;4.18;;;3.60;99.90;;;;;;4944625;28;20201;-68
2022/03/08 08:48:47;;;;;;;4.75;4.35;;;3.70;99.90;;;;;;4945272;28;20696;-68
2022/03/08 08:51:15;;;;;;;5.78;3.85;;;3.70;99.90;;;;;;4945211;29;20307;-69
2022/03/08 08:53:43;;;;;;;4.43;4.00;;;3.80;99.90;;;;;;4945498;29;20273;-68
2022/03/08 08:56:11;;;;;;;4.20;3.80;;;3.90;99.90;;;;;;4945183;29;20303;-68
2022/03/08 08:58:39;;;;;;;3.83;3.50;;;4.10;99.90;;;;;;4942837;29;20622;-67
2022/03/08 09:01:07;;;;;;;6.72;3.90;;;4.20;99.90;;;;;;4943303;29;20296;-66
2022/03/08 09:03:37;;;;;;;7.70;5.82;;;4.30;99.90;;;;;;4942217;29;20486;-68
2022/03/08 09:06:06;;;;;;;8.90;2.78;;;4.40;99.90;;;;;;4942826;29;20205;-70
2022/03/08 09:08:34;;;;;;;3.90;3.20;;;4.50;99.90;;;;;;4942346;29;20472;-70
2022/03/08 09:11:04;;;;;;;4.60;3.55;;;4.50;99.90;;;;;;4937537;28;20823;-68
2022/03/08 09:13:32;;;;;;;3.08;2.88;;;4.60;99.90;;;;;;4941425;28;20228;-71
2022/03/08 09:16:00;;;;;;;6.18;3.55;;;4.60;99.90;;;;;;4942081;28;20211;-71
2022/03/08 09:18:28;;;;;;;3.15;2.90;;;4.70;99.90;;;;;;4942432;29;20453;-68
2022/03/08 09:20:57;;;;;;;4.13;3.15;;;4.70;99.90;;;;;;4948100;28;20251;-70
2022/03/08 09:23:26;;;;;;;4.93;3.42;;;4.70;99.90;;;;;;4956103;28;20223;-70
2022/03/08 09:25:55;;;;;;;4.75;3.33;;;4.80;99.90;;;;;;4945055;28;20233;-71
2022/03/08 09:28:22;;;;;;;3.30;3.00;;;4.90;99.90;;;;;;4944097;28;20444;-68
2022/03/08 09:30:50;;;;;;;5.78;3.15;;;5.00;99.90;;;;;;4963865;28;20256;-69
2022/03/08 09:33:18;;;;;;;4.20;3.25;;;5.10;99.90;;;;;;4964875;28;20424;-66
2022/03/08 09:35:47;;;;;;;4.60;2.97;;;5.10;99.90;;;;;;4965814;28;20239;-70
2022/03/08 09:38:16;;;;;;;3.38;2.58;;;5.20;99.90;;;;;;4953888;28;20296;-69
2022/03/08 09:40:45;;;;;;;3.35;2.38;;;5.30;99.90;;;;;;4945716;28;20820;-69
2022/03/08 09:43:14;;;;;;;7.57;2.70;;;5.40;99.90;;;;;;4941612;29;20324;-69
2022/03/08 09:45:42;;;;;;;3.55;2.60;;;5.50;99.90;;;;;;4937464;28;20570;-70
2022/03/08 09:48:10;;;;;;;4.30;3.33;;;5.50;99.90;;;;;;4948741;28;20299;-67
2022/03/08 09:50:39;;;;;;;4.93;3.33;;;5.60;99.90;;;;;;4940987;28;20748;-65
2022/03/08 09:53:10;;;;;;;2.97;2.42;;;5.60;99.90;;;;;;4939793;28;20337;-69
2022/03/08 09:55:40;;;;;;;3.33;3.00;;;5.80;99.90;;;;;;4940762;28;20661;-71
2022/03/08 09:58:08;;;;;;;5.28;2.65;;;5.90;99.90;;;;;;4942089;29;20237;-70
2022/03/08 10:00:36;;;;;;;4.90;2.75;;;6.00;99.90;;;;;;4940947;29;20253;-70
2022/03/08 10:03:10;;;;;;;3.15;2.85;;;6.10;99.90;;;;;;4941732;29;20345;-65
2022/03/08 10:05:40;;;;;;;4.72;2.88;;;6.20;99.90;;;;;;4941549;29;20213;-69
2022/03/08 10:08:14;;;;;;;4.20;3.75;;;6.30;99.90;;;;;;4941460;29;20474;-68
2022/03/08 10:10:50;;;;;;;4.68;2.97;;;6.30;99.90;;;;;;4941130;29;20533;-68
2022/03/08 10:13:24;;;;;;;3.15;2.92;;;6.40;99.90;;;;;;4941176;29;20803;-69
2022/03/08 10:16:09;;;;;;;7.00;3.17;;;6.50;99.90;;;;;;4941178;29;20201;-69
2022/03/08 10:18:38;;;;;;;4.60;3.22;;;6.50;99.90;;;;;;4940850;29;20651;-69
2022/03/08 10:21:26;;;;;;;5.78;3.00;;;6.60;99.90;;;;;;4941332;29;20260;-70
2022/03/08 10:23:54;;;;;;;3.72;2.65;;;6.60;99.90;;;;;;4940906;29;20316;-69
2022/03/08 10:26:24;;;;;;;4.00;3.60;;;6.70;99.90;;;;;;4941057;29;20320;-70
2022/03/08 10:28:54;;;;;;;4.28;3.70;;;6.80;99.90;;;;;;4940641;29;20665;-70
2022/03/08 10:31:22;;;;;;;4.70;3.80;;;6.90;99.90;;;;;;4941183;29;20201;-70
2022/03/08 10:33:51;;;;;;;3.92;3.15;;;7.00;99.90;;;;;;4940854;29;20196;-67
2022/03/08 10:36:23;;;;;;;3.20;2.63;;;7.00;99.90;;;;;;4940796;29;20267;-69
2022/03/08 10:39:09;;;;;;;2.95;2.75;;;7.00;99.90;;;;;;4941306;29;20264;-70
2022/03/08 10:41:47;;;;;;;3.95;2.70;;;7.10;99.90;;;;;;4940937;29;20474;-70
2022/03/08 10:44:16;;;;;;;3.42;2.15;;;7.20;99.90;;;;;;4940839;29;20221;-71
2022/03/08 10:46:59;;;;;;;3.40;2.85;;;7.20;99.90;;;;;;4939519;28;20664;-71
2022/03/08 10:49:27;;;;;;;3.08;2.63;;;7.20;99.90;;;;;;4939141;28;20284;-69
2022/03/08 10:52:04;;;;;;;2.38;2.13;;;7.20;99.90;;;;;;4940421;28;20632;-70
2022/03/08 10:54:33;;;;;;;2.85;2.65;;;7.30;99.90;;;;;;4940393;29;20267;-70
2022/03/08 10:57:03;;;;;;;2.75;2.47;;;7.40;99.90;;;;;;4940829;29;20292;-67
2022/03/08 10:59:31;;;;;;;4.60;2.28;;;7.50;99.90;;;;;;4940523;28;20233;-70
2022/03/08 11:01:59;;;;;;;2.20;2.00;;;7.60;99.90;;;;;;4942485;28;20201;-68
2022/03/08 11:04:27;;;;;;;2.45;1.75;;;7.60;99.90;;;;;;4958787;28;20494;-66
2022/03/08 11:06:57;;;;;;;3.45;2.05;;;7.70;99.90;;;;;;4959728;28;20660;-66
2022/03/08 11:09:25;;;;;;;1.23;1.15;;;7.70;99.90;;;;;;4960155;28;20286;-65
2022/03/08 11:11:53;;;;;;;1.90;1.80;;;7.70;99.90;;;;;;4960655;28;20224;-66
2022/03/08 11:14:22;;;;;;;2.70;2.50;;;7.80;99.90;;;;;;4951951;28;20677;-65
2022/03/08 11:16:51;;;;;;;3.13;2.00;;;7.90;99.90;;;;;;4940886;28;20308;-67
2022/03/08 11:19:26;;;;;;;5.70;4.18;;;7.90;99.90;;;;;;4941448;29;20748;-65
2022/03/08 11:21:56;;;;;;;3.85;3.45;;;8.00;99.90;;;;;;4940511;28;20276;-66
2022/03/08 11:24:25;;;;;;;2.50;2.40;;;8.00;99.90;;;;;;4937272;28;20228;-71
2022/03/08 11:26:53;;;;;;;3.05;2.30;;;8.00;99.90;;;;;;4958060;28;20239;-68
2022/03/08 11:29:23;;;;;;;2.42;2.20;;;8.10;99.90;;;;;;4959933;28;20468;-68
2022/03/08 11:31:56;;;;;;;2.20;2.00;;;8.20;99.90;;;;;;4959480;28;20334;-68
2022/03/08 11:34:32;;;;;;;2.53;2.33;;;8.20;99.90;;;;;;4959073;28;20207;-69
2022/03/08 11:37:05;;;;;;;2.65;2.13;;;8.20;99.90;;;;;;4959169;28;20295;-66
2022/03/08 11:39:39;;;;;;;5.35;2.50;;;8.20;99.90;;;;;;4958449;28;20752;-69
2022/03/08 11:42:26;;;;;;;2.40;2.30;;;8.30;99.90;;;;;;4958309;28;20724;-72
2022/03/08 11:44:59;;;;;;;2.75;2.22;;;8.30;99.90;;;;;;4957196;28;20432;-69
2022/03/08 11:47:38;;;;;;;2.85;2.60;;;8.40;99.90;;;;;;4958818;28;20201;-66
2022/03/08 11:50:07;;;;;;;3.70;2.28;;;8.40;99.90;;;;;;4959058;28;20303;-71
2022/03/08 11:52:36;;;;;;;3.42;2.28;;;8.50;99.90;;;;;;4958718;28;20840;-69
2022/03/08 11:55:07;;;;;;;3.28;2.03;;;8.60;99.90;;;;;;4958662;28;20232;-69
2022/03/08 11:57:55;;;;;;;1.80;1.70;;;8.70;99.90;;;;;;4958912;28;20738;-69
2022/03/08 12:00:28;;;;;;;1.65;1.52;;;8.60;99.90;;;;;;4958625;28;20467;-68
2022/03/08 12:02:59;;;;;;;1.80;1.70;;;8.70;99.90;;;;;;4958693;28;20200;-69
2022/03/08 12:05:56;;;;;;;2.38;1.83;;;8.80;99.90;;;;;;4959404;28;20247;-66
2022/03/08 12:08:44;;;;;;;1.52;1.42;;;8.80;99.40;;;;;;4960555;28;20230;-67
2022/03/08 12:11:32;;;;;;;2.35;1.45;;;8.80;99.90;;;;;;4959155;28;20209;-67
2022/03/08 12:14:26;;;;;;;2.10;1.50;;;8.90;99.60;;;;;;4957960;28;20359;-66
2022/03/08 12:17:08;;;;;;;1.70;1.60;;;8.90;99.80;;;;;;4959754;28;20369;-68
2022/03/08 12:19:38;;;;;;;2.03;1.92;;;9.00;99.60;;;;;;4962442;28;20231;-69
2022/03/08 12:22:11;;;;;;;1.65;1.30;;;9.00;99.70;;;;;;4962180;28;20239;-66
2022/03/08 12:24:42;;;;;;;1.90;1.80;;;9.00;99.80;;;;;;4962260;28;20311;-70
2022/03/08 12:27:10;;;;;;;2.30;1.90;;;9.00;99.70;;;;;;4961806;28;20219;-70
2022/03/08 12:29:56;;;;;;;1.30;1.30;;;9.10;99.80;;;;;;4962466;28;20307;-70
2022/03/08 12:32:32;;;;;;;2.10;1.00;;;9.20;99.50;;;;;;4962623;28;20426;-71
2022/03/08 12:35:04;;;;;;;1.88;1.77;;;9.20;99.10;;;;;;4962191;28;20200;-71
2022/03/08 12:37:48;;;;;;;2.70;1.65;;;9.30;99.30;;;;;;4961455;28;20247;-68
2022/03/08 12:40:33;;;;;;;2.15;1.30;;;9.40;99.40;;;;;;4962367;28;20351;-68
2022/03/08 12:43:05;;;;;;;2.67;1.67;;;9.40;99.00;;;;;;4961893;28;20239;-70
2022/03/08 12:45:42;;;;;;;1.20;1.10;;;9.40;98.50;;;;;;4962133;28;20236;-69
2022/03/08 12:48:13;;;;;;;1.92;1.35;;;9.50;98.70;;;;;;4962294;28;20215;-67
2022/03/08 12:50:43;;;;;;;1.63;1.52;;;9.50;98.50;;;;;;4962474;28;20582;-69
2022/03/08 12:53:13;;;;;;;1.85;1.40;;;9.50;98.60;;;;;;4962639;28;20491;-69
2022/03/08 12:55:46;;;;;;;3.15;2.40;;;9.50;98.50;;;;;;4962324;28;20287;-70
2022/03/08 12:58:16;;;;;;;1.67;1.58;;;9.50;98.80;;;;;;4962269;28;20842;-71
2022/03/08 13:00:51;;;;;;;3.53;1.65;;;9.50;99.10;;;;;;4962594;28;20229;-70